sensor_id;sensor_type;location;lat;lon;timestamp;P1;durP1;ratioP1;P2;durP2;ratioP2
42886;SDS011;29032;56.028;92.904;2024-01-30T00:02:34;70.70;;;25.60;;
42886;SDS011;29032;56.028;92.904;2024-01-30T00:07:37;80.83;;;32.77;;
42886;SDS011;29032;56.028;92.904;2024-01-30T00:12:39;76.13;;;28.13;;
42886;SDS011;29032;56.028;92.904;2024-01-30T00:17:42;86.90;;;30.90;;
42886;SDS011;29032;56.028;92.904;2024-01-30T00:22:45;83.80;;;31.73;;
42886;SDS011;29032;56.028;92.904;2024-01-30T00:27:47;64.00;;;26.73;;
42886;SDS011;29032;56.028;92.904;2024-01-30T00:32:49;53.20;;;19.73;;
42886;SDS011;29032;56.028;92.904;2024-01-30T00:37:53;40.37;;;16.17;;
42886;SDS011;29032;56.028;92.904;2024-01-30T00:42:55;41.13;;;15.13;;
42886;SDS011;29032;56.028;92.904;2024-01-30T00:47:57;41.40;;;14.80;;
42886;SDS011;29032;56.028;92.904;2024-01-30T00:53:01;36.03;;;15.90;;
42886;SDS011;29032;56.028;92.904;2024-01-30T00:58:03;149.93;;;43.00;;
42886;SDS011;29032;56.028;92.904;2024-01-30T01:03:06;104.60;;;35.10;;
42886;SDS011;29032;56.028;92.904;2024-01-30T01:08:09;183.40;;;57.47;;
42886;SDS011;29032;56.028;92.904;2024-01-30T01:13:12;187.00;;;61.80;;
42886;SDS011;29032;56.028;92.904;2024-01-30T01:18:14;204.00;;;65.50;;
42886;SDS011;29032;56.028;92.904;2024-01-30T01:23:17;197.40;;;69.07;;
42886;SDS011;29032;56.028;92.904;2024-01-30T01:28:19;197.33;;;66.60;;
42886;SDS011;29032;56.028;92.904;2024-01-30T01:33:22;184.17;;;56.90;;
42886;SDS011;29032;56.028;92.904;2024-01-30T01:38:25;191.70;;;59.87;;
42886;SDS011;29032;56.028;92.904;2024-01-30T01:43:27;169.33;;;57.10;;
42886;SDS011;29032;56.028;92.904;2024-01-30T01:48:29;200.93;;;65.30;;
42886;SDS011;29032;56.028;92.904;2024-01-30T01:53:33;192.07;;;61.70;;
42886;SDS011;29032;56.028;92.904;2024-01-30T01:58:35;193.07;;;61.97;;
42886;SDS011;29032;56.028;92.904;2024-01-30T02:03:38;152.13;;;55.47;;
42886;SDS011;29032;56.028;92.904;2024-01-30T02:08:43;60.87;;;24.87;;
42886;SDS011;29032;56.028;92.904;2024-01-30T02:13:45;44.33;;;18.50;;
42886;SDS011;29032;56.028;92.904;2024-01-30T02:18:47;43.70;;;16.90;;
42886;SDS011;29032;56.028;92.904;2024-01-30T02:23:51;42.10;;;15.50;;
42886;SDS011;29032;56.028;92.904;2024-01-30T02:28:55;39.42;;;15.90;;
42886;SDS011;29032;56.028;92.904;2024-01-30T02:33:58;41.57;;;16.43;;
42886;SDS011;29032;56.028;92.904;2024-01-30T02:39:01;44.33;;;17.80;;
42886;SDS011;29032;56.028;92.904;2024-01-30T02:44:04;44.90;;;16.63;;
42886;SDS011;29032;56.028;92.904;2024-01-30T02:49:06;36.70;;;16.33;;
42886;SDS011;29032;56.028;92.904;2024-01-30T02:54:10;40.47;;;17.00;;
42886;SDS011;29032;56.028;92.904;2024-01-30T02:59:12;40.03;;;17.43;;
42886;SDS011;29032;56.028;92.904;2024-01-30T03:04:14;42.37;;;15.90;;
42886;SDS011;29032;56.028;92.904;2024-01-30T03:09:17;43.17;;;17.83;;
42886;SDS011;29032;56.028;92.904;2024-01-30T03:14:20;49.97;;;19.97;;
42886;SDS011;29032;56.028;92.904;2024-01-30T03:19:22;53.80;;;20.20;;
42886;SDS011;29032;56.028;92.904;2024-01-30T03:24:25;43.53;;;20.33;;
42886;SDS011;29032;56.028;92.904;2024-01-30T03:29:28;52.93;;;19.17;;
42886;SDS011;29032;56.028;92.904;2024-01-30T03:34:30;53.47;;;19.20;;
42886;SDS011;29032;56.028;92.904;2024-01-30T03:39:33;53.67;;;22.63;;
42886;SDS011;29032;56.028;92.904;2024-01-30T03:44:36;50.13;;;20.33;;
42886;SDS011;29032;56.028;92.904;2024-01-30T03:49:38;57.13;;;21.47;;
42886;SDS011;29032;56.028;92.904;2024-01-30T03:54:41;53.97;;;20.63;;
42886;SDS011;29032;56.028;92.904;2024-01-30T03:59:44;52.73;;;22.60;;
42886;SDS011;29032;56.028;92.904;2024-01-30T04:04:46;51.60;;;21.73;;
42886;SDS011;29032;56.028;92.904;2024-01-30T04:09:51;56.50;;;21.03;;
42886;SDS011;29032;56.028;92.904;2024-01-30T04:14:53;60.17;;;24.27;;
42886;SDS011;29032;56.028;92.904;2024-01-30T04:19:55;53.57;;;22.13;;
42886;SDS011;29032;56.028;92.904;2024-01-30T04:24:59;60.30;;;23.03;;
42886;SDS011;29032;56.028;92.904;2024-01-30T04:30:01;59.77;;;24.37;;
42886;SDS011;29032;56.028;92.904;2024-01-30T04:35:03;64.30;;;26.13;;
42886;SDS011;29032;56.028;92.904;2024-01-30T04:40:08;62.10;;;24.13;;
42886;SDS011;29032;56.028;92.904;2024-01-30T04:45:11;67.80;;;25.73;;
42886;SDS011;29032;56.028;92.904;2024-01-30T04:50:14;62.57;;;26.20;;
42886;SDS011;29032;56.028;92.904;2024-01-30T04:55:17;75.77;;;27.30;;
42886;SDS011;29032;56.028;92.904;2024-01-30T05:00:20;70.00;;;24.93;;
42886;SDS011;29032;56.028;92.904;2024-01-30T05:05:22;63.97;;;24.33;;
42886;SDS011;29032;56.028;92.904;2024-01-30T05:10:26;59.40;;;25.40;;
42886;SDS011;29032;56.028;92.904;2024-01-30T05:15:28;65.47;;;27.30;;
42886;SDS011;29032;56.028;92.904;2024-01-30T05:20:30;70.13;;;28.13;;
42886;SDS011;29032;56.028;92.904;2024-01-30T05:25:34;63.73;;;25.60;;
42886;SDS011;29032;56.028;92.904;2024-01-30T05:30:36;66.83;;;24.83;;
42886;SDS011;29032;56.028;92.904;2024-01-30T05:35:38;62.37;;;25.63;;
42886;SDS011;29032;56.028;92.904;2024-01-30T05:40:42;59.17;;;23.67;;
42886;SDS011;29032;56.028;92.904;2024-01-30T05:45:44;59.80;;;25.47;;
42886;SDS011;29032;56.028;92.904;2024-01-30T05:50:46;65.50;;;24.07;;
42886;SDS011;29032;56.028;92.904;2024-01-30T05:55:50;55.00;;;22.73;;
42886;SDS011;29032;56.028;92.904;2024-01-30T06:00:52;60.40;;;21.67;;
42886;SDS011;29032;56.028;92.904;2024-01-30T06:05:54;51.50;;;20.83;;
42886;SDS011;29032;56.028;92.904;2024-01-30T06:10:59;60.43;;;23.00;;
42886;SDS011;29032;56.028;92.904;2024-01-30T06:16:01;54.87;;;22.53;;
42886;SDS011;29032;56.028;92.904;2024-01-30T06:21:04;49.23;;;19.50;;
42886;SDS011;29032;56.028;92.904;2024-01-30T06:26:08;54.07;;;22.67;;
42886;SDS011;29032;56.028;92.904;2024-01-30T06:31:10;49.97;;;21.47;;
42886;SDS011;29032;56.028;92.904;2024-01-30T06:36:12;49.73;;;21.30;;
42886;SDS011;29032;56.028;92.904;2024-01-30T06:41:16;53.23;;;21.87;;
42886;SDS011;29032;56.028;92.904;2024-01-30T06:46:18;52.33;;;22.37;;
42886;SDS011;29032;56.028;92.904;2024-01-30T06:51:20;56.67;;;20.77;;
42886;SDS011;29032;56.028;92.904;2024-01-30T06:56:24;55.37;;;22.60;;
42886;SDS011;29032;56.028;92.904;2024-01-30T07:01:27;51.13;;;20.43;;
42886;SDS011;29032;56.028;92.904;2024-01-30T07:06:30;55.40;;;21.67;;
42886;SDS011;29032;56.028;92.904;2024-01-30T07:11:33;41.33;;;18.27;;
42886;SDS011;29032;56.028;92.904;2024-01-30T07:16:35;34.97;;;16.37;;
42886;SDS011;29032;56.028;92.904;2024-01-30T07:21:38;43.90;;;16.37;;
42886;SDS011;29032;56.028;92.904;2024-01-30T07:26:41;34.93;;;15.13;;
42886;SDS011;29032;56.028;92.904;2024-01-30T07:31:43;27.00;;;12.33;;
42886;SDS011;29032;56.028;92.904;2024-01-30T07:36:46;38.30;;;12.37;;
42886;SDS011;29032;56.028;92.904;2024-01-30T07:41:49;27.67;;;11.73;;
42886;SDS011;29032;56.028;92.904;2024-01-30T07:46:51;34.67;;;14.27;;
42886;SDS011;29032;56.028;92.904;2024-01-30T07:51:54;33.87;;;13.43;;
42886;SDS011;29032;56.028;92.904;2024-01-30T07:56:57;34.00;;;14.50;;
42886;SDS011;29032;56.028;92.904;2024-01-30T08:01:59;31.47;;;13.63;;
42886;SDS011;29032;56.028;92.904;2024-01-30T08:07:02;35.93;;;13.87;;
42886;SDS011;29032;56.028;92.904;2024-01-30T08:12:06;32.17;;;15.07;;
42886;SDS011;29032;56.028;92.904;2024-01-30T08:17:10;31.73;;;12.50;;
42886;SDS011;29032;56.028;92.904;2024-01-30T08:22:12;34.33;;;13.53;;
42886;SDS011;29032;56.028;92.904;2024-01-30T08:27:15;31.83;;;14.00;;
42886;SDS011;29032;56.028;92.904;2024-01-30T08:32:18;31.80;;;12.67;;
42886;SDS011;29032;56.028;92.904;2024-01-30T08:37:20;31.93;;;13.47;;
42886;SDS011;29032;56.028;92.904;2024-01-30T08:42:24;30.63;;;12.37;;
42886;SDS011;29032;56.028;92.904;2024-01-30T08:47:26;32.63;;;12.03;;
42886;SDS011;29032;56.028;92.904;2024-01-30T08:52:28;31.73;;;12.67;;
42886;SDS011;29032;56.028;92.904;2024-01-30T08:57:32;31.77;;;13.27;;
42886;SDS011;29032;56.028;92.904;2024-01-30T09:02:34;22.67;;;10.37;;
42886;SDS011;29032;56.028;92.904;2024-01-30T09:07:36;26.70;;;10.00;;
42886;SDS011;29032;56.028;92.904;2024-01-30T09:12:40;23.57;;;10.70;;
42886;SDS011;29032;56.028;92.904;2024-01-30T09:17:42;23.20;;;9.13;;
42886;SDS011;29032;56.028;92.904;2024-01-30T09:22:44;31.90;;;10.90;;
42886;SDS011;29032;56.028;92.904;2024-01-30T09:27:48;27.63;;;10.67;;
42886;SDS011;29032;56.028;92.904;2024-01-30T09:32:50;30.03;;;12.47;;
42886;SDS011;29032;56.028;92.904;2024-01-30T09:37:52;31.67;;;12.13;;
42886;SDS011;29032;56.028;92.904;2024-01-30T09:42:56;25.70;;;12.23;;
42886;SDS011;29032;56.028;92.904;2024-01-30T09:48:00;29.80;;;12.97;;
42886;SDS011;29032;56.028;92.904;2024-01-30T09:53:03;37.23;;;13.30;;
42886;SDS011;29032;56.028;92.904;2024-01-30T09:58:08;28.57;;;12.87;;
42886;SDS011;29032;56.028;92.904;2024-01-30T10:03:10;40.97;;;14.07;;
42886;SDS011;29032;56.028;92.904;2024-01-30T10:08:12;33.87;;;13.57;;
42886;SDS011;29032;56.028;92.904;2024-01-30T10:13:16;30.67;;;11.33;;
42886;SDS011;29032;56.028;92.904;2024-01-30T10:18:18;29.23;;;12.00;;
42886;SDS011;29032;56.028;92.904;2024-01-30T10:23:20;30.20;;;12.50;;
42886;SDS011;29032;56.028;92.904;2024-01-30T10:28:26;30.87;;;11.50;;
42886;SDS011;29032;56.028;92.904;2024-01-30T10:33:28;31.50;;;14.27;;
42886;SDS011;29032;56.028;92.904;2024-01-30T10:38:31;34.43;;;13.77;;
42886;SDS011;29032;56.028;92.904;2024-01-30T10:43:35;36.93;;;15.97;;
42886;SDS011;29032;56.028;92.904;2024-01-30T10:48:42;31.93;;;12.03;;
42886;SDS011;29032;56.028;92.904;2024-01-30T10:53:45;27.50;;;12.73;;
42886;SDS011;29032;56.028;92.904;2024-01-30T10:58:51;33.23;;;13.80;;
42886;SDS011;29032;56.028;92.904;2024-01-30T11:03:55;41.95;;;15.68;;
42886;SDS011;29032;56.028;92.904;2024-01-30T11:09:01;59.27;;;22.17;;
42886;SDS011;29032;56.028;92.904;2024-01-30T11:14:05;50.77;;;22.13;;
42886;SDS011;29032;56.028;92.904;2024-01-30T11:19:10;58.95;;;21.50;;
42886;SDS011;29032;56.028;92.904;2024-01-30T11:24:14;60.17;;;21.97;;
42886;SDS011;29032;56.028;92.904;2024-01-30T11:29:18;49.40;;;20.97;;
42886;SDS011;29032;56.028;92.904;2024-01-30T11:34:20;49.83;;;19.90;;
42886;SDS011;29032;56.028;92.904;2024-01-30T11:39:22;41.80;;;16.23;;
42886;SDS011;29032;56.028;92.904;2024-01-30T11:44:27;41.07;;;16.03;;
42886;SDS011;29032;56.028;92.904;2024-01-30T11:49:29;37.73;;;15.30;;
42886;SDS011;29032;56.028;92.904;2024-01-30T11:54:31;39.57;;;12.67;;
42886;SDS011;29032;56.028;92.904;2024-01-30T11:59:35;30.20;;;12.33;;
42886;SDS011;29032;56.028;92.904;2024-01-30T12:04:37;28.47;;;12.43;;
42886;SDS011;29032;56.028;92.904;2024-01-30T12:09:39;35.13;;;13.67;;
42886;SDS011;29032;56.028;92.904;2024-01-30T12:14:43;27.97;;;12.17;;
42886;SDS011;29032;56.028;92.904;2024-01-30T12:19:45;26.03;;;11.30;;
42886;SDS011;29032;56.028;92.904;2024-01-30T12:24:47;30.93;;;13.13;;
42886;SDS011;29032;56.028;92.904;2024-01-30T12:29:56;35.03;;;14.20;;
42886;SDS011;29032;56.028;92.904;2024-01-30T12:34:59;46.63;;;14.60;;
42886;SDS011;29032;56.028;92.904;2024-01-30T12:40:01;39.27;;;15.00;;
42886;SDS011;29032;56.028;92.904;2024-01-30T12:45:05;42.40;;;17.37;;
42886;SDS011;29032;56.028;92.904;2024-01-30T12:50:08;45.53;;;17.10;;
42886;SDS011;29032;56.028;92.904;2024-01-30T12:55:11;39.77;;;16.07;;
42886;SDS011;29032;56.028;92.904;2024-01-30T13:00:14;39.37;;;16.80;;
42886;SDS011;29032;56.028;92.904;2024-01-30T13:05:17;42.67;;;16.77;;
42886;SDS011;29032;56.028;92.904;2024-01-30T13:10:19;45.97;;;17.23;;
42886;SDS011;29032;56.028;92.904;2024-01-30T13:15:22;42.83;;;16.47;;
42886;SDS011;29032;56.028;92.904;2024-01-30T13:20:25;47.80;;;16.77;;
42886;SDS011;29032;56.028;92.904;2024-01-30T13:25:27;37.83;;;16.73;;
42886;SDS011;29032;56.028;92.904;2024-01-30T13:30:30;42.43;;;16.70;;
42886;SDS011;29032;56.028;92.904;2024-01-30T13:35:33;48.83;;;19.03;;
42886;SDS011;29032;56.028;92.904;2024-01-30T13:40:35;44.30;;;18.83;;
42886;SDS011;29032;56.028;92.904;2024-01-30T13:45:38;43.63;;;19.07;;
42886;SDS011;29032;56.028;92.904;2024-01-30T13:50:41;50.37;;;19.23;;
42886;SDS011;29032;56.028;92.904;2024-01-30T13:55:43;47.87;;;18.93;;
42886;SDS011;29032;56.028;92.904;2024-01-30T14:00:46;50.80;;;19.57;;
42886;SDS011;29032;56.028;92.904;2024-01-30T14:05:49;42.23;;;19.23;;
42886;SDS011;29032;56.028;92.904;2024-01-30T14:10:51;42.17;;;17.57;;
42886;SDS011;29032;56.028;92.904;2024-01-30T14:15:55;41.67;;;17.07;;
42886;SDS011;29032;56.028;92.904;2024-01-30T14:20:57;36.87;;;15.17;;
42886;SDS011;29032;56.028;92.904;2024-01-30T14:25:59;38.87;;;16.10;;
42886;SDS011;29032;56.028;92.904;2024-01-30T14:31:03;36.47;;;14.43;;
42886;SDS011;29032;56.028;92.904;2024-01-30T14:36:06;36.17;;;14.30;;
42886;SDS011;29032;56.028;92.904;2024-01-30T14:41:08;32.13;;;13.57;;
42886;SDS011;29032;56.028;92.904;2024-01-30T14:46:12;32.47;;;13.80;;
42886;SDS011;29032;56.028;92.904;2024-01-30T14:51:14;36.77;;;14.73;;
42886;SDS011;29032;56.028;92.904;2024-01-30T14:56:16;38.07;;;15.97;;
42886;SDS011;29032;56.028;92.904;2024-01-30T15:01:21;35.73;;;14.80;;
42886;SDS011;29032;56.028;92.904;2024-01-30T15:06:23;32.63;;;13.50;;
42886;SDS011;29032;56.028;92.904;2024-01-30T15:11:26;26.23;;;11.53;;
42886;SDS011;29032;56.028;92.904;2024-01-30T15:16:29;26.20;;;11.47;;
42886;SDS011;29032;56.028;92.904;2024-01-30T15:21:32;29.10;;;11.97;;
42886;SDS011;29032;56.028;92.904;2024-01-30T15:26:34;164.93;;;53.37;;
42886;SDS011;29032;56.028;92.904;2024-01-30T15:31:40;237.73;;;81.90;;
42886;SDS011;29032;56.028;92.904;2024-01-30T15:36:42;319.17;;;110.93;;
42886;SDS011;29032;56.028;92.904;2024-01-30T15:41:44;332.57;;;117.07;;
42886;SDS011;29032;56.028;92.904;2024-01-30T15:46:48;324.80;;;120.30;;
42886;SDS011;29032;56.028;92.904;2024-01-30T15:51:50;401.07;;;146.07;;
42886;SDS011;29032;56.028;92.904;2024-01-30T15:56:52;447.20;;;157.90;;
42886;SDS011;29032;56.028;92.904;2024-01-30T16:01:56;454.70;;;163.20;;
42886;SDS011;29032;56.028;92.904;2024-01-30T16:06:58;462.83;;;166.53;;
42886;SDS011;29032;56.028;92.904;2024-01-30T16:12:00;542.63;;;192.43;;
42886;SDS011;29032;56.028;92.904;2024-01-30T16:17:04;592.90;;;220.20;;
42886;SDS011;29032;56.028;92.904;2024-01-30T16:22:06;595.77;;;219.43;;
42886;SDS011;29032;56.028;92.904;2024-01-30T16:27:08;648.17;;;244.17;;
42886;SDS011;29032;56.028;92.904;2024-01-30T16:32:12;681.37;;;256.40;;
42886;SDS011;29032;56.028;92.904;2024-01-30T16:37:14;474.97;;;174.73;;
42886;SDS011;29032;56.028;92.904;2024-01-30T16:42:17;352.37;;;133.40;;
42886;SDS011;29032;56.028;92.904;2024-01-30T16:47:20;290.93;;;103.40;;
42886;SDS011;29032;56.028;92.904;2024-01-30T16:52:22;268.00;;;96.70;;
42886;SDS011;29032;56.028;92.904;2024-01-30T16:57:24;290.27;;;98.70;;
42886;SDS011;29032;56.028;92.904;2024-01-30T17:02:28;242.23;;;87.07;;
42886;SDS011;29032;56.028;92.904;2024-01-30T17:07:30;451.77;;;139.83;;
42886;SDS011;29032;56.028;92.904;2024-01-30T17:12:32;492.30;;;166.83;;
42886;SDS011;29032;56.028;92.904;2024-01-30T17:17:36;454.93;;;159.63;;
42886;SDS011;29032;56.028;92.904;2024-01-30T17:22:38;461.43;;;160.47;;
42886;SDS011;29032;56.028;92.904;2024-01-30T17:27:40;461.47;;;155.90;;
42886;SDS011;29032;56.028;92.904;2024-01-30T17:32:44;461.00;;;157.83;;
42886;SDS011;29032;56.028;92.904;2024-01-30T17:37:47;454.77;;;155.70;;
42886;SDS011;29032;56.028;92.904;2024-01-30T17:42:49;448.10;;;154.87;;
42886;SDS011;29032;56.028;92.904;2024-01-30T17:47:53;526.17;;;174.47;;
42886;SDS011;29032;56.028;92.904;2024-01-30T17:52:55;599.70;;;208.97;;
42886;SDS011;29032;56.028;92.904;2024-01-30T17:57:57;624.90;;;215.73;;
42886;SDS011;29032;56.028;92.904;2024-01-30T18:03:01;647.10;;;233.67;;
42886;SDS011;29032;56.028;92.904;2024-01-30T18:08:03;693.13;;;231.37;;
42886;SDS011;29032;56.028;92.904;2024-01-30T18:13:06;657.17;;;229.47;;
42886;SDS011;29032;56.028;92.904;2024-01-30T18:18:09;620.03;;;214.93;;
42886;SDS011;29032;56.028;92.904;2024-01-30T18:23:11;627.20;;;218.93;;
42886;SDS011;29032;56.028;92.904;2024-01-30T18:28:14;541.13;;;191.27;;
42886;SDS011;29032;56.028;92.904;2024-01-30T18:33:17;557.40;;;184.63;;
42886;SDS011;29032;56.028;92.904;2024-01-30T18:38:19;530.50;;;180.50;;
42886;SDS011;29032;56.028;92.904;2024-01-30T18:43:22;494.57;;;171.00;;
42886;SDS011;29032;56.028;92.904;2024-01-30T18:48:25;503.97;;;172.87;;
42886;SDS011;29032;56.028;92.904;2024-01-30T18:53:27;498.00;;;161.97;;
42886;SDS011;29032;56.028;92.904;2024-01-30T18:58:30;506.97;;;168.77;;
42886;SDS011;29032;56.028;92.904;2024-01-30T19:03:33;446.33;;;160.17;;
42886;SDS011;29032;56.028;92.904;2024-01-30T19:08:37;475.13;;;161.47;;
42886;SDS011;29032;56.028;92.904;2024-01-30T19:13:39;446.63;;;156.20;;
42886;SDS011;29032;56.028;92.904;2024-01-30T19:18:43;427.77;;;147.60;;
42886;SDS011;29032;56.028;92.904;2024-01-30T19:23:45;441.77;;;153.47;;
42886;SDS011;29032;56.028;92.904;2024-01-30T19:28:47;400.57;;;141.07;;
42886;SDS011;29032;56.028;92.904;2024-01-30T19:33:54;327.30;;;114.47;;
42886;SDS011;29032;56.028;92.904;2024-01-30T19:38:56;337.50;;;114.97;;
42886;SDS011;29032;56.028;92.904;2024-01-30T19:43:58;393.10;;;128.30;;
42886;SDS011;29032;56.028;92.904;2024-01-30T19:49:02;382.57;;;126.23;;
42886;SDS011;29032;56.028;92.904;2024-01-30T19:54:04;414.47;;;140.10;;
42886;SDS011;29032;56.028;92.904;2024-01-30T19:59:06;396.87;;;133.90;;
42886;SDS011;29032;56.028;92.904;2024-01-30T20:04:10;393.93;;;133.83;;
42886;SDS011;29032;56.028;92.904;2024-01-30T20:09:12;390.70;;;133.40;;
42886;SDS011;29032;56.028;92.904;2024-01-30T20:14:14;403.87;;;136.07;;
42886;SDS011;29032;56.028;92.904;2024-01-30T20:19:18;382.23;;;130.60;;
42886;SDS011;29032;56.028;92.904;2024-01-30T20:24:20;366.30;;;129.63;;
42886;SDS011;29032;56.028;92.904;2024-01-30T20:29:22;371.27;;;132.83;;
42886;SDS011;29032;56.028;92.904;2024-01-30T20:34:26;375.93;;;132.40;;
42886;SDS011;29032;56.028;92.904;2024-01-30T20:39:28;270.20;;;100.97;;
42886;SDS011;29032;56.028;92.904;2024-01-30T20:44:30;240.93;;;86.90;;
42886;SDS011;29032;56.028;92.904;2024-01-30T20:49:34;260.17;;;87.70;;
42886;SDS011;29032;56.028;92.904;2024-01-30T20:54:36;222.73;;;84.50;;
42886;SDS011;29032;56.028;92.904;2024-01-30T20:59:38;239.53;;;88.37;;
42886;SDS011;29032;56.028;92.904;2024-01-30T21:04:42;228.70;;;82.53;;
42886;SDS011;29032;56.028;92.904;2024-01-30T21:09:44;226.67;;;81.53;;
42886;SDS011;29032;56.028;92.904;2024-01-30T21:14:46;229.30;;;80.80;;
42886;SDS011;29032;56.028;92.904;2024-01-30T21:19:50;300.33;;;103.93;;
42886;SDS011;29032;56.028;92.904;2024-01-30T21:24:52;352.63;;;113.10;;
42886;SDS011;29032;56.028;92.904;2024-01-30T21:29:54;263.23;;;94.43;;
42886;SDS011;29032;56.028;92.904;2024-01-30T21:34:58;228.37;;;78.57;;
42886;SDS011;29032;56.028;92.904;2024-01-30T21:40:00;200.17;;;69.37;;
42886;SDS011;29032;56.028;92.904;2024-01-30T21:45:03;187.67;;;66.53;;
42886;SDS011;29032;56.028;92.904;2024-01-30T21:50:08;304.40;;;101.87;;
42886;SDS011;29032;56.028;92.904;2024-01-30T21:55:10;356.13;;;120.50;;
42886;SDS011;29032;56.028;92.904;2024-01-30T22:00:13;320.87;;;110.40;;
42886;SDS011;29032;56.028;92.904;2024-01-30T22:05:17;223.60;;;79.67;;
42886;SDS011;29032;56.028;92.904;2024-01-30T22:10:19;196.50;;;66.30;;
42886;SDS011;29032;56.028;92.904;2024-01-30T22:15:21;203.60;;;70.73;;
42886;SDS011;29032;56.028;92.904;2024-01-30T22:20:25;194.50;;;66.53;;
42886;SDS011;29032;56.028;92.904;2024-01-30T22:25:27;291.57;;;98.87;;
42886;SDS011;29032;56.028;92.904;2024-01-30T22:30:29;266.30;;;93.63;;
42886;SDS011;29032;56.028;92.904;2024-01-30T22:35:33;301.53;;;109.43;;
42886;SDS011;29032;56.028;92.904;2024-01-30T22:40:35;322.60;;;111.93;;
42886;SDS011;29032;56.028;92.904;2024-01-30T22:45:37;320.47;;;112.03;;
42886;SDS011;29032;56.028;92.904;2024-01-30T22:50:41;316.43;;;115.63;;
42886;SDS011;29032;56.028;92.904;2024-01-30T22:55:43;297.63;;;105.30;;
42886;SDS011;29032;56.028;92.904;2024-01-30T23:00:46;219.40;;;82.63;;
42886;SDS011;29032;56.028;92.904;2024-01-30T23:05:49;215.03;;;72.30;;
42886;SDS011;29032;56.028;92.904;2024-01-30T23:10:51;234.90;;;74.23;;
42886;SDS011;29032;56.028;92.904;2024-01-30T23:15:54;248.47;;;77.80;;
42886;SDS011;29032;56.028;92.904;2024-01-30T23:20:57;249.00;;;75.27;;
42886;SDS011;29032;56.028;92.904;2024-01-30T23:25:59;260.00;;;75.17;;
42886;SDS011;29032;56.028;92.904;2024-01-30T23:31:01;227.13;;;73.93;;
42886;SDS011;29032;56.028;92.904;2024-01-30T23:36:05;255.37;;;79.30;;
42886;SDS011;29032;56.028;92.904;2024-01-30T23:41:08;214.77;;;70.13;;
42886;SDS011;29032;56.028;92.904;2024-01-30T23:46:10;293.07;;;96.10;;
42886;SDS011;29032;56.028;92.904;2024-01-30T23:51:14;279.93;;;96.57;;
42886;SDS011;29032;56.028;92.904;2024-01-30T23:56:16;294.27;;;100.93;;
